sensor_id;sensor_type;location;lat;lon;timestamp;temperature;humidity
52016;DHT22;38032;53.326;6.472;2023-05-07T00:01:36;12.40;99.90
52016;DHT22;38032;53.326;6.472;2023-05-07T00:04:01;12.40;99.90
52016;DHT22;38032;53.326;6.472;2023-05-07T00:06:29;12.40;99.90
52016;DHT22;38032;53.326;6.472;2023-05-07T00:08:56;12.40;99.90
52016;DHT22;38032;53.326;6.472;2023-05-07T00:11:23;12.40;99.90
52016;DHT22;38032;53.326;6.472;2023-05-07T00:13:49;12.30;99.90
52016;DHT22;38032;53.326;6.472;2023-05-07T00:16:15;12.30;99.90
52016;DHT22;38032;53.326;6.472;2023-05-07T00:18:40;12.30;99.90
52016;DHT22;38032;53.326;6.472;2023-05-07T00:21:06;12.30;99.90
52016;DHT22;38032;53.326;6.472;2023-05-07T00:23:32;12.20;99.90
52016;DHT22;38032;53.326;6.472;2023-05-07T00:25:58;12.20;99.90
52016;DHT22;38032;53.326;6.472;2023-05-07T00:28:24;12.20;99.90
52016;DHT22;38032;53.326;6.472;2023-05-07T00:33:16;12.30;99.90
52016;DHT22;38032;53.326;6.472;2023-05-07T00:35:42;12.10;99.90
52016;DHT22;38032;53.326;6.472;2023-05-07T00:38:08;12.30;99.90
52016;DHT22;38032;53.326;6.472;2023-05-07T00:40:34;12.00;99.90
52016;DHT22;38032;53.326;6.472;2023-05-07T00:43:00;12.10;99.90
52016;DHT22;38032;53.326;6.472;2023-05-07T00:45:27;12.10;99.90
52016;DHT22;38032;53.326;6.472;2023-05-07T00:47:55;11.90;99.90
52016;DHT22;38032;53.326;6.472;2023-05-07T00:50:22;11.90;99.90
52016;DHT22;38032;53.326;6.472;2023-05-07T00:52:49;11.90;99.90
52016;DHT22;38032;53.326;6.472;2023-05-07T00:55:15;11.80;99.90
52016;DHT22;38032;53.326;6.472;2023-05-07T00:57:41;11.80;99.90
52016;DHT22;38032;53.326;6.472;2023-05-07T01:00:09;11.70;99.90
52016;DHT22;38032;53.326;6.472;2023-05-07T01:02:35;11.80;99.90
52016;DHT22;38032;53.326;6.472;2023-05-07T01:05:02;11.70;99.90
52016;DHT22;38032;53.326;6.472;2023-05-07T01:07:30;11.80;99.90
52016;DHT22;38032;53.326;6.472;2023-05-07T01:09:56;11.70;99.90
52016;DHT22;38032;53.326;6.472;2023-05-07T01:12:23;11.60;99.90
52016;DHT22;38032;53.326;6.472;2023-05-07T01:14:50;11.60;99.90
52016;DHT22;38032;53.326;6.472;2023-05-07T01:17:16;11.60;99.90
52016;DHT22;38032;53.326;6.472;2023-05-07T01:19:42;11.60;99.90
52016;DHT22;38032;53.326;6.472;2023-05-07T01:22:10;11.50;99.90
52016;DHT22;38032;53.326;6.472;2023-05-07T01:24:37;11.50;99.90
52016;DHT22;38032;53.326;6.472;2023-05-07T01:27:04;11.50;99.90
52016;DHT22;38032;53.326;6.472;2023-05-07T01:29:30;11.50;99.90
52016;DHT22;38032;53.326;6.472;2023-05-07T01:31:58;11.40;99.90
52016;DHT22;38032;53.326;6.472;2023-05-07T01:34:25;11.40;99.90
52016;DHT22;38032;53.326;6.472;2023-05-07T01:36:54;11.40;99.90
52016;DHT22;38032;53.326;6.472;2023-05-07T01:39:24;11.40;99.90
52016;DHT22;38032;53.326;6.472;2023-05-07T01:41:51;11.50;99.90
52016;DHT22;38032;53.326;6.472;2023-05-07T01:44:18;11.40;99.90
52016;DHT22;38032;53.326;6.472;2023-05-07T01:46:45;11.40;99.90
52016;DHT22;38032;53.326;6.472;2023-05-07T01:49:11;11.40;99.90
52016;DHT22;38032;53.326;6.472;2023-05-07T01:51:37;11.50;99.90
52016;DHT22;38032;53.326;6.472;2023-05-07T01:54:03;11.40;99.90
52016;DHT22;38032;53.326;6.472;2023-05-07T01:56:29;11.40;99.90
52016;DHT22;38032;53.326;6.472;2023-05-07T01:58:54;11.40;99.90
52016;DHT22;38032;53.326;6.472;2023-05-07T02:01:20;11.40;99.90
52016;DHT22;38032;53.326;6.472;2023-05-07T02:03:46;11.30;99.90
52016;DHT22;38032;53.326;6.472;2023-05-07T02:06:12;11.30;99.90
52016;DHT22;38032;53.326;6.472;2023-05-07T02:08:38;11.30;99.90
52016;DHT22;38032;53.326;6.472;2023-05-07T02:11:04;11.30;99.90
52016;DHT22;38032;53.326;6.472;2023-05-07T02:13:31;11.30;99.90
52016;DHT22;38032;53.326;6.472;2023-05-07T02:15:57;11.30;99.90
52016;DHT22;38032;53.326;6.472;2023-05-07T02:18:23;11.30;99.90
52016;DHT22;38032;53.326;6.472;2023-05-07T02:20:49;11.30;99.90
52016;DHT22;38032;53.326;6.472;2023-05-07T02:23:15;11.40;99.90
52016;DHT22;38032;53.326;6.472;2023-05-07T02:25:41;11.30;99.90
52016;DHT22;38032;53.326;6.472;2023-05-07T02:28:07;11.20;99.90
52016;DHT22;38032;53.326;6.472;2023-05-07T02:30:33;11.30;99.90
52016;DHT22;38032;53.326;6.472;2023-05-07T02:32:58;11.30;99.90
52016;DHT22;38032;53.326;6.472;2023-05-07T02:35:25;11.30;99.90
52016;DHT22;38032;53.326;6.472;2023-05-07T02:37:51;11.30;99.90
52016;DHT22;38032;53.326;6.472;2023-05-07T02:40:17;11.20;99.90
52016;DHT22;38032;53.326;6.472;2023-05-07T02:42:43;11.20;99.90
52016;DHT22;38032;53.326;6.472;2023-05-07T02:45:09;11.20;99.90
52016;DHT22;38032;53.326;6.472;2023-05-07T02:47:35;11.20;99.90
52016;DHT22;38032;53.326;6.472;2023-05-07T02:50:01;11.20;99.90
52016;DHT22;38032;53.326;6.472;2023-05-07T02:52:27;11.20;99.90
52016;DHT22;38032;53.326;6.472;2023-05-07T02:54:53;11.10;99.90
52016;DHT22;38032;53.326;6.472;2023-05-07T02:57:18;11.30;99.90
52016;DHT22;38032;53.326;6.472;2023-05-07T02:59:44;11.10;99.90
52016;DHT22;38032;53.326;6.472;2023-05-07T03:02:10;11.20;99.90
52016;DHT22;38032;53.326;6.472;2023-05-07T03:04:36;11.20;99.90
52016;DHT22;38032;53.326;6.472;2023-05-07T03:07:02;11.10;99.90
52016;DHT22;38032;53.326;6.472;2023-05-07T03:09:27;11.10;99.90
52016;DHT22;38032;53.326;6.472;2023-05-07T03:11:53;11.20;99.90
52016;DHT22;38032;53.326;6.472;2023-05-07T03:14:19;11.10;99.90
52016;DHT22;38032;53.326;6.472;2023-05-07T03:16:46;11.00;99.90
52016;DHT22;38032;53.326;6.472;2023-05-07T03:19:11;11.10;99.90
52016;DHT22;38032;53.326;6.472;2023-05-07T03:21:37;11.00;99.90
52016;DHT22;38032;53.326;6.472;2023-05-07T03:24:03;11.00;99.90
52016;DHT22;38032;53.326;6.472;2023-05-07T03:26:29;11.10;99.90
52016;DHT22;38032;53.326;6.472;2023-05-07T03:28:55;11.20;99.90
52016;DHT22;38032;53.326;6.472;2023-05-07T03:31:21;11.00;99.90
52016;DHT22;38032;53.326;6.472;2023-05-07T03:33:54;11.00;99.90
52016;DHT22;38032;53.326;6.472;2023-05-07T03:36:21;11.00;99.90
52016;DHT22;38032;53.326;6.472;2023-05-07T03:38:47;11.00;99.90
52016;DHT22;38032;53.326;6.472;2023-05-07T03:41:13;11.00;99.90
52016;DHT22;38032;53.326;6.472;2023-05-07T03:43:39;10.90;99.90
52016;DHT22;38032;53.326;6.472;2023-05-07T03:46:05;10.80;99.90
52016;DHT22;38032;53.326;6.472;2023-05-07T03:48:31;10.90;99.90
52016;DHT22;38032;53.326;6.472;2023-05-07T03:50:58;10.90;99.90
52016;DHT22;38032;53.326;6.472;2023-05-07T03:53:24;10.90;99.90
52016;DHT22;38032;53.326;6.472;2023-05-07T03:55:50;10.80;99.90
52016;DHT22;38032;53.326;6.472;2023-05-07T03:58:16;10.80;99.90
52016;DHT22;38032;53.326;6.472;2023-05-07T04:00:42;10.90;99.90
52016;DHT22;38032;53.326;6.472;2023-05-07T04:03:08;10.80;99.90
52016;DHT22;38032;53.326;6.472;2023-05-07T04:05:34;10.80;99.90
52016;DHT22;38032;53.326;6.472;2023-05-07T04:08:00;10.80;99.90
52016;DHT22;38032;53.326;6.472;2023-05-07T04:10:26;10.80;99.90
52016;DHT22;38032;53.326;6.472;2023-05-07T04:12:53;10.80;99.90
52016;DHT22;38032;53.326;6.472;2023-05-07T04:15:19;10.80;99.90
52016;DHT22;38032;53.326;6.472;2023-05-07T04:17:45;10.80;99.90
52016;DHT22;38032;53.326;6.472;2023-05-07T04:20:14;10.80;99.90
52016;DHT22;38032;53.326;6.472;2023-05-07T04:22:41;10.80;99.90
52016;DHT22;38032;53.326;6.472;2023-05-07T04:25:07;10.80;99.90
52016;DHT22;38032;53.326;6.472;2023-05-07T04:27:35;10.90;99.90
52016;DHT22;38032;53.326;6.472;2023-05-07T04:30:01;10.80;99.90
52016;DHT22;38032;53.326;6.472;2023-05-07T04:32:28;10.80;99.90
52016;DHT22;38032;53.326;6.472;2023-05-07T04:34:55;10.90;99.90
52016;DHT22;38032;53.326;6.472;2023-05-07T04:37:21;10.80;99.90
52016;DHT22;38032;53.326;6.472;2023-05-07T04:39:48;10.90;99.90
52016;DHT22;38032;53.326;6.472;2023-05-07T04:42:17;10.70;99.90
52016;DHT22;38032;53.326;6.472;2023-05-07T04:44:44;10.70;99.90
52016;DHT22;38032;53.326;6.472;2023-05-07T04:47:11;10.70;99.90
52016;DHT22;38032;53.326;6.472;2023-05-07T04:49:38;10.70;99.90
52016;DHT22;38032;53.326;6.472;2023-05-07T04:52:04;10.70;99.90
52016;DHT22;38032;53.326;6.472;2023-05-07T04:54:30;10.70;99.90
52016;DHT22;38032;53.326;6.472;2023-05-07T04:56:56;10.60;99.90
52016;DHT22;38032;53.326;6.472;2023-05-07T04:59:22;10.60;99.90
52016;DHT22;38032;53.326;6.472;2023-05-07T05:01:48;10.60;99.90
52016;DHT22;38032;53.326;6.472;2023-05-07T05:04:14;10.60;99.90
52016;DHT22;38032;53.326;6.472;2023-05-07T05:06:40;10.70;99.90
52016;DHT22;38032;53.326;6.472;2023-05-07T05:09:06;10.60;99.90
52016;DHT22;38032;53.326;6.472;2023-05-07T05:11:32;10.60;99.90
52016;DHT22;38032;53.326;6.472;2023-05-07T05:13:59;10.60;99.90
52016;DHT22;38032;53.326;6.472;2023-05-07T05:16:26;10.60;99.90
52016;DHT22;38032;53.326;6.472;2023-05-07T05:18:51;10.60;99.90
52016;DHT22;38032;53.326;6.472;2023-05-07T05:21:20;10.50;99.90
52016;DHT22;38032;53.326;6.472;2023-05-07T05:23:45;10.60;99.90
52016;DHT22;38032;53.326;6.472;2023-05-07T05:26:11;10.60;99.90
52016;DHT22;38032;53.326;6.472;2023-05-07T05:28:37;10.60;99.90
52016;DHT22;38032;53.326;6.472;2023-05-07T05:31:03;10.60;99.90
52016;DHT22;38032;53.326;6.472;2023-05-07T05:33:29;10.60;99.90
52016;DHT22;38032;53.326;6.472;2023-05-07T05:35:55;10.60;99.90
52016;DHT22;38032;53.326;6.472;2023-05-07T05:38:21;10.60;99.90
52016;DHT22;38032;53.326;6.472;2023-05-07T05:40:47;10.70;99.90
52016;DHT22;38032;53.326;6.472;2023-05-07T05:43:14;10.60;99.90
52016;DHT22;38032;53.326;6.472;2023-05-07T05:45:40;10.70;99.90
52016;DHT22;38032;53.326;6.472;2023-05-07T05:48:06;10.70;99.90
52016;DHT22;38032;53.326;6.472;2023-05-07T05:50:32;10.60;99.90
52016;DHT22;38032;53.326;6.472;2023-05-07T05:52:58;10.60;99.90
52016;DHT22;38032;53.326;6.472;2023-05-07T05:55:23;10.60;99.90
52016;DHT22;38032;53.326;6.472;2023-05-07T05:57:50;10.70;99.90
52016;DHT22;38032;53.326;6.472;2023-05-07T06:00:16;10.60;99.90
52016;DHT22;38032;53.326;6.472;2023-05-07T06:02:42;10.60;99.90
52016;DHT22;38032;53.326;6.472;2023-05-07T06:05:09;10.70;99.90
52016;DHT22;38032;53.326;6.472;2023-05-07T06:07:35;10.70;99.90
52016;DHT22;38032;53.326;6.472;2023-05-07T06:10:01;10.70;99.90
52016;DHT22;38032;53.326;6.472;2023-05-07T06:12:27;10.70;99.90
52016;DHT22;38032;53.326;6.472;2023-05-07T06:14:53;10.70;99.90
52016;DHT22;38032;53.326;6.472;2023-05-07T06:17:18;10.70;99.90
52016;DHT22;38032;53.326;6.472;2023-05-07T06:19:44;10.70;99.90
52016;DHT22;38032;53.326;6.472;2023-05-07T06:22:10;10.70;99.90
52016;DHT22;38032;53.326;6.472;2023-05-07T06:24:36;10.80;99.90
52016;DHT22;38032;53.326;6.472;2023-05-07T06:27:02;10.80;99.90
52016;DHT22;38032;53.326;6.472;2023-05-07T06:29:28;10.80;99.90
52016;DHT22;38032;53.326;6.472;2023-05-07T06:31:57;10.80;99.90
52016;DHT22;38032;53.326;6.472;2023-05-07T06:34:31;11.00;99.90
52016;DHT22;38032;53.326;6.472;2023-05-07T06:36:57;10.90;99.90
52016;DHT22;38032;53.326;6.472;2023-05-07T06:39:23;11.10;99.90
52016;DHT22;38032;53.326;6.472;2023-05-07T06:41:49;11.10;99.90
52016;DHT22;38032;53.326;6.472;2023-05-07T06:44:15;11.00;99.90
52016;DHT22;38032;53.326;6.472;2023-05-07T06:46:41;11.00;99.90
52016;DHT22;38032;53.326;6.472;2023-05-07T06:49:07;11.10;99.90
52016;DHT22;38032;53.326;6.472;2023-05-07T06:51:33;11.20;99.90
52016;DHT22;38032;53.326;6.472;2023-05-07T06:53:59;11.20;99.90
52016;DHT22;38032;53.326;6.472;2023-05-07T07:01:17;11.20;99.90
52016;DHT22;38032;53.326;6.472;2023-05-07T07:03:43;11.20;99.90
52016;DHT22;38032;53.326;6.472;2023-05-07T07:06:09;11.20;99.90
52016;DHT22;38032;53.326;6.472;2023-05-07T07:08:35;11.30;99.90
52016;DHT22;38032;53.326;6.472;2023-05-07T07:11:01;11.40;99.90
52016;DHT22;38032;53.326;6.472;2023-05-07T07:13:26;11.50;99.90
52016;DHT22;38032;53.326;6.472;2023-05-07T07:15:52;11.30;99.90
52016;DHT22;38032;53.326;6.472;2023-05-07T07:18:19;11.30;99.90
52016;DHT22;38032;53.326;6.472;2023-05-07T07:20:45;11.30;99.90
52016;DHT22;38032;53.326;6.472;2023-05-07T07:23:10;11.40;99.90
52016;DHT22;38032;53.326;6.472;2023-05-07T07:25:36;11.40;99.90
52016;DHT22;38032;53.326;6.472;2023-05-07T07:28:02;11.30;99.90
52016;DHT22;38032;53.326;6.472;2023-05-07T07:30:28;11.30;99.90
52016;DHT22;38032;53.326;6.472;2023-05-07T07:32:54;11.30;99.90
52016;DHT22;38032;53.326;6.472;2023-05-07T07:35:25;11.50;99.90
52016;DHT22;38032;53.326;6.472;2023-05-07T07:37:51;11.50;99.90
52016;DHT22;38032;53.326;6.472;2023-05-07T07:40:18;11.40;99.90
52016;DHT22;38032;53.326;6.472;2023-05-07T07:42:44;11.50;99.90
52016;DHT22;38032;53.326;6.472;2023-05-07T07:45:10;11.50;99.90
52016;DHT22;38032;53.326;6.472;2023-05-07T07:47:36;11.70;99.90
52016;DHT22;38032;53.326;6.472;2023-05-07T07:50:02;11.60;99.90
52016;DHT22;38032;53.326;6.472;2023-05-07T07:52:28;11.60;99.90
52016;DHT22;38032;53.326;6.472;2023-05-07T07:54:53;11.70;99.90
52016;DHT22;38032;53.326;6.472;2023-05-07T07:57:19;11.70;99.90
52016;DHT22;38032;53.326;6.472;2023-05-07T07:59:45;11.70;99.90
52016;DHT22;38032;53.326;6.472;2023-05-07T08:02:11;11.80;99.90
52016;DHT22;38032;53.326;6.472;2023-05-07T08:04:37;11.80;99.90
52016;DHT22;38032;53.326;6.472;2023-05-07T08:07:03;11.80;99.90
52016;DHT22;38032;53.326;6.472;2023-05-07T08:09:29;11.90;99.90
52016;DHT22;38032;53.326;6.472;2023-05-07T08:11:55;11.90;99.90
52016;DHT22;38032;53.326;6.472;2023-05-07T08:14:20;11.90;99.90
52016;DHT22;38032;53.326;6.472;2023-05-07T08:16:46;12.00;99.90
52016;DHT22;38032;53.326;6.472;2023-05-07T08:19:12;12.10;99.90
52016;DHT22;38032;53.326;6.472;2023-05-07T08:21:39;12.10;99.90
52016;DHT22;38032;53.326;6.472;2023-05-07T08:24:05;12.20;99.90
52016;DHT22;38032;53.326;6.472;2023-05-07T08:26:31;12.30;99.90
52016;DHT22;38032;53.326;6.472;2023-05-07T08:28:57;12.40;99.90
52016;DHT22;38032;53.326;6.472;2023-05-07T08:31:23;12.50;99.90
52016;DHT22;38032;53.326;6.472;2023-05-07T08:33:49;12.60;99.90
52016;DHT22;38032;53.326;6.472;2023-05-07T08:38:41;13.00;99.90
52016;DHT22;38032;53.326;6.472;2023-05-07T08:43:38;13.30;99.90
52016;DHT22;38032;53.326;6.472;2023-05-07T08:46:08;13.40;99.90
52016;DHT22;38032;53.326;6.472;2023-05-07T08:48:35;13.50;99.90
52016;DHT22;38032;53.326;6.472;2023-05-07T08:51:01;13.60;99.90
52016;DHT22;38032;53.326;6.472;2023-05-07T08:53:27;13.70;99.90
52016;DHT22;38032;53.326;6.472;2023-05-07T08:55:53;13.80;99.90
52016;DHT22;38032;53.326;6.472;2023-05-07T08:58:19;13.90;99.90
52016;DHT22;38032;53.326;6.472;2023-05-07T09:00:46;14.00;99.90
52016;DHT22;38032;53.326;6.472;2023-05-07T09:03:12;14.10;99.90
52016;DHT22;38032;53.326;6.472;2023-05-07T09:05:39;14.10;99.90
52016;DHT22;38032;53.326;6.472;2023-05-07T09:08:07;14.20;99.90
52016;DHT22;38032;53.326;6.472;2023-05-07T09:10:34;14.30;99.90
52016;DHT22;38032;53.326;6.472;2023-05-07T09:12:59;14.50;99.90
52016;DHT22;38032;53.326;6.472;2023-05-07T09:15:28;14.60;99.90
52016;DHT22;38032;53.326;6.472;2023-05-07T09:17:53;14.80;99.90
52016;DHT22;38032;53.326;6.472;2023-05-07T09:20:20;14.90;99.90
52016;DHT22;38032;53.326;6.472;2023-05-07T09:22:46;15.10;99.90
52016;DHT22;38032;53.326;6.472;2023-05-07T09:25:12;15.20;99.90
52016;DHT22;38032;53.326;6.472;2023-05-07T09:27:37;15.20;99.90
52016;DHT22;38032;53.326;6.472;2023-05-07T09:30:05;15.30;99.90
52016;DHT22;38032;53.326;6.472;2023-05-07T09:32:35;15.40;99.90
52016;DHT22;38032;53.326;6.472;2023-05-07T09:35:01;15.40;99.90
52016;DHT22;38032;53.326;6.472;2023-05-07T09:37:28;15.50;99.90
52016;DHT22;38032;53.326;6.472;2023-05-07T09:39:56;15.70;99.90
52016;DHT22;38032;53.326;6.472;2023-05-07T09:42:24;15.90;99.90
52016;DHT22;38032;53.326;6.472;2023-05-07T09:44:52;16.10;99.90
52016;DHT22;38032;53.326;6.472;2023-05-07T09:47:19;16.30;99.90
52016;DHT22;38032;53.326;6.472;2023-05-07T09:49:47;16.60;99.90
52016;DHT22;38032;53.326;6.472;2023-05-07T09:52:14;16.90;99.90
52016;DHT22;38032;53.326;6.472;2023-05-07T09:54:41;17.00;99.90
52016;DHT22;38032;53.326;6.472;2023-05-07T09:57:11;17.10;99.90
52016;DHT22;38032;53.326;6.472;2023-05-07T09:59:38;17.20;99.90
52016;DHT22;38032;53.326;6.472;2023-05-07T10:02:04;17.30;99.90
52016;DHT22;38032;53.326;6.472;2023-05-07T10:04:34;17.40;99.90
52016;DHT22;38032;53.326;6.472;2023-05-07T10:07:00;17.50;99.90
52016;DHT22;38032;53.326;6.472;2023-05-07T10:09:27;17.50;99.90
52016;DHT22;38032;53.326;6.472;2023-05-07T10:11:54;17.50;99.90
52016;DHT22;38032;53.326;6.472;2023-05-07T10:14:21;17.50;99.90
52016;DHT22;38032;53.326;6.472;2023-05-07T10:16:48;17.40;99.90
52016;DHT22;38032;53.326;6.472;2023-05-07T10:19:14;17.50;99.90
52016;DHT22;38032;53.326;6.472;2023-05-07T10:21:48;17.40;99.90
52016;DHT22;38032;53.326;6.472;2023-05-07T10:24:23;17.50;99.90
52016;DHT22;38032;53.326;6.472;2023-05-07T10:26:52;17.50;99.90
52016;DHT22;38032;53.326;6.472;2023-05-07T10:31:59;17.70;99.90
52016;DHT22;38032;53.326;6.472;2023-05-07T10:34:37;17.80;99.90
52016;DHT22;38032;53.326;6.472;2023-05-07T10:37:05;17.80;99.90
52016;DHT22;38032;53.326;6.472;2023-05-07T10:39:32;18.00;99.90
52016;DHT22;38032;53.326;6.472;2023-05-07T10:42:08;18.10;99.90
52016;DHT22;38032;53.326;6.472;2023-05-07T10:44:34;18.20;99.90
52016;DHT22;38032;53.326;6.472;2023-05-07T10:47:06;18.30;99.90
52016;DHT22;38032;53.326;6.472;2023-05-07T10:49:36;18.30;99.90
52016;DHT22;38032;53.326;6.472;2023-05-07T10:52:13;18.20;99.90
52016;DHT22;38032;53.326;6.472;2023-05-07T10:54:40;18.20;99.90
52016;DHT22;38032;53.326;6.472;2023-05-07T10:59:54;18.50;99.90
52016;DHT22;38032;53.326;6.472;2023-05-07T11:02:20;18.80;99.90
52016;DHT22;38032;53.326;6.472;2023-05-07T11:05:19;18.90;99.90
52016;DHT22;38032;53.326;6.472;2023-05-07T11:07:54;19.00;99.90
52016;DHT22;38032;53.326;6.472;2023-05-07T11:10:21;19.10;99.90
52016;DHT22;38032;53.326;6.472;2023-05-07T11:12:48;19.10;99.90
52016;DHT22;38032;53.326;6.472;2023-05-07T11:15:15;19.30;99.90
52016;DHT22;38032;53.326;6.472;2023-05-07T11:17:59;19.40;99.90
52016;DHT22;38032;53.326;6.472;2023-05-07T11:20:44;19.60;99.90
52016;DHT22;38032;53.326;6.472;2023-05-07T11:26:07;20.00;99.90
52016;DHT22;38032;53.326;6.472;2023-05-07T11:28:37;20.50;99.90
52016;DHT22;38032;53.326;6.472;2023-05-07T11:31:04;20.40;99.90
52016;DHT22;38032;53.326;6.472;2023-05-07T11:33:30;20.50;99.90
52016;DHT22;38032;53.326;6.472;2023-05-07T11:35:57;20.30;99.90
52016;DHT22;38032;53.326;6.472;2023-05-07T11:38:25;20.30;99.90
52016;DHT22;38032;53.326;6.472;2023-05-07T11:40:53;20.30;99.90
52016;DHT22;38032;53.326;6.472;2023-05-07T11:43:19;20.40;99.90
52016;DHT22;38032;53.326;6.472;2023-05-07T11:45:46;20.40;99.90
52016;DHT22;38032;53.326;6.472;2023-05-07T11:48:14;20.50;99.90
52016;DHT22;38032;53.326;6.472;2023-05-07T11:50:51;20.60;99.90
52016;DHT22;38032;53.326;6.472;2023-05-07T11:53:18;20.40;99.90
52016;DHT22;38032;53.326;6.472;2023-05-07T11:55:45;20.40;99.90
52016;DHT22;38032;53.326;6.472;2023-05-07T11:58:13;20.40;99.90
52016;DHT22;38032;53.326;6.472;2023-05-07T12:00:50;20.40;99.90
52016;DHT22;38032;53.326;6.472;2023-05-07T12:03:17;20.30;99.90
52016;DHT22;38032;53.326;6.472;2023-05-07T12:05:45;20.20;99.90
52016;DHT22;38032;53.326;6.472;2023-05-07T12:08:15;20.30;99.90
52016;DHT22;38032;53.326;6.472;2023-05-07T12:10:42;20.30;99.90
52016;DHT22;38032;53.326;6.472;2023-05-07T12:13:19;20.40;99.90
52016;DHT22;38032;53.326;6.472;2023-05-07T12:15:45;20.30;99.90
52016;DHT22;38032;53.326;6.472;2023-05-07T12:18:12;20.20;99.90
52016;DHT22;38032;53.326;6.472;2023-05-07T12:20:39;20.20;99.90
52016;DHT22;38032;53.326;6.472;2023-05-07T12:23:05;20.10;99.90
52016;DHT22;38032;53.326;6.472;2023-05-07T12:25:34;20.10;99.90
52016;DHT22;38032;53.326;6.472;2023-05-07T12:28:01;20.10;99.90
52016;DHT22;38032;53.326;6.472;2023-05-07T12:30:27;20.10;99.90
52016;DHT22;38032;53.326;6.472;2023-05-07T12:32:53;20.10;99.90
52016;DHT22;38032;53.326;6.472;2023-05-07T12:35:27;20.20;99.90
52016;DHT22;38032;53.326;6.472;2023-05-07T12:37:58;20.10;99.90
52016;DHT22;38032;53.326;6.472;2023-05-07T12:40:37;20.10;99.90
52016;DHT22;38032;53.326;6.472;2023-05-07T12:43:03;20.10;99.90
52016;DHT22;38032;53.326;6.472;2023-05-07T12:45:29;20.10;99.90
52016;DHT22;38032;53.326;6.472;2023-05-07T12:47:55;20.20;99.90
52016;DHT22;38032;53.326;6.472;2023-05-07T12:50:22;20.10;99.90
52016;DHT22;38032;53.326;6.472;2023-05-07T12:52:48;20.10;99.90
52016;DHT22;38032;53.326;6.472;2023-05-07T12:55:15;20.10;99.90
52016;DHT22;38032;53.326;6.472;2023-05-07T12:57:43;20.00;99.90
52016;DHT22;38032;53.326;6.472;2023-05-07T13:00:10;20.00;99.90
52016;DHT22;38032;53.326;6.472;2023-05-07T13:02:40;20.00;99.90
52016;DHT22;38032;53.326;6.472;2023-05-07T13:05:07;20.00;99.90
52016;DHT22;38032;53.326;6.472;2023-05-07T13:07:33;20.00;99.90
52016;DHT22;38032;53.326;6.472;2023-05-07T13:09:59;20.00;99.90
52016;DHT22;38032;53.326;6.472;2023-05-07T13:12:25;20.00;99.90
52016;DHT22;38032;53.326;6.472;2023-05-07T13:14:51;19.90;99.90
52016;DHT22;38032;53.326;6.472;2023-05-07T13:17:17;19.90;99.90
52016;DHT22;38032;53.326;6.472;2023-05-07T13:19:44;19.80;99.90
52016;DHT22;38032;53.326;6.472;2023-05-07T13:22:10;19.80;99.90
52016;DHT22;38032;53.326;6.472;2023-05-07T13:24:36;19.80;99.90
52016;DHT22;38032;53.326;6.472;2023-05-07T13:27:03;19.70;99.90
52016;DHT22;38032;53.326;6.472;2023-05-07T13:29:29;19.80;99.90
52016;DHT22;38032;53.326;6.472;2023-05-07T13:31:57;19.80;99.90
52016;DHT22;38032;53.326;6.472;2023-05-07T13:34:23;19.80;99.90
52016;DHT22;38032;53.326;6.472;2023-05-07T13:36:49;19.80;99.90
52016;DHT22;38032;53.326;6.472;2023-05-07T13:39:15;20.00;99.90
52016;DHT22;38032;53.326;6.472;2023-05-07T13:41:41;20.10;99.90
52016;DHT22;38032;53.326;6.472;2023-05-07T13:44:06;20.20;99.90
52016;DHT22;38032;53.326;6.472;2023-05-07T13:46:32;20.30;99.90
52016;DHT22;38032;53.326;6.472;2023-05-07T13:48:58;20.40;99.90
52016;DHT22;38032;53.326;6.472;2023-05-07T13:51:25;20.40;99.90
52016;DHT22;38032;53.326;6.472;2023-05-07T13:53:51;20.40;99.90
52016;DHT22;38032;53.326;6.472;2023-05-07T13:56:18;20.50;99.90
52016;DHT22;38032;53.326;6.472;2023-05-07T13:58:44;20.60;99.90
52016;DHT22;38032;53.326;6.472;2023-05-07T14:01:09;20.60;99.90
52016;DHT22;38032;53.326;6.472;2023-05-07T14:03:36;20.70;99.90
52016;DHT22;38032;53.326;6.472;2023-05-07T14:06:03;20.70;99.90
52016;DHT22;38032;53.326;6.472;2023-05-07T14:08:29;20.80;99.90
52016;DHT22;38032;53.326;6.472;2023-05-07T14:10:55;20.80;99.90
52016;DHT22;38032;53.326;6.472;2023-05-07T14:13:21;20.90;99.90
52016;DHT22;38032;53.326;6.472;2023-05-07T14:15:47;20.80;99.90
52016;DHT22;38032;53.326;6.472;2023-05-07T14:18:15;20.80;99.90
52016;DHT22;38032;53.326;6.472;2023-05-07T14:20:41;20.80;99.90
52016;DHT22;38032;53.326;6.472;2023-05-07T14:23:09;20.80;99.90
52016;DHT22;38032;53.326;6.472;2023-05-07T14:25:35;20.90;99.90
52016;DHT22;38032;53.326;6.472;2023-05-07T14:28:01;20.80;99.90
52016;DHT22;38032;53.326;6.472;2023-05-07T14:30:27;20.80;99.90
52016;DHT22;38032;53.326;6.472;2023-05-07T14:32:52;20.80;99.90
52016;DHT22;38032;53.326;6.472;2023-05-07T14:35:18;20.90;99.90
52016;DHT22;38032;53.326;6.472;2023-05-07T14:37:44;20.90;99.90
52016;DHT22;38032;53.326;6.472;2023-05-07T14:40:10;20.90;99.90
52016;DHT22;38032;53.326;6.472;2023-05-07T14:42:36;21.00;99.90
52016;DHT22;38032;53.326;6.472;2023-05-07T14:45:02;20.90;99.90
52016;DHT22;38032;53.326;6.472;2023-05-07T14:47:28;21.00;99.90
52016;DHT22;38032;53.326;6.472;2023-05-07T14:49:54;21.10;99.90
52016;DHT22;38032;53.326;6.472;2023-05-07T14:52:20;21.20;99.90
52016;DHT22;38032;53.326;6.472;2023-05-07T14:54:46;21.20;99.90
52016;DHT22;38032;53.326;6.472;2023-05-07T14:57:13;21.30;99.90
52016;DHT22;38032;53.326;6.472;2023-05-07T14:59:42;21.30;99.90
52016;DHT22;38032;53.326;6.472;2023-05-07T15:02:09;21.30;99.90
52016;DHT22;38032;53.326;6.472;2023-05-07T15:04:36;21.30;99.90
52016;DHT22;38032;53.326;6.472;2023-05-07T15:07:01;21.40;99.90
52016;DHT22;38032;53.326;6.472;2023-05-07T15:09:29;21.40;99.90
52016;DHT22;38032;53.326;6.472;2023-05-07T15:11:55;21.30;99.90
52016;DHT22;38032;53.326;6.472;2023-05-07T15:14:21;21.30;99.90
52016;DHT22;38032;53.326;6.472;2023-05-07T15:16:48;21.20;99.90
52016;DHT22;38032;53.326;6.472;2023-05-07T15:19:14;21.10;99.90
52016;DHT22;38032;53.326;6.472;2023-05-07T15:21:42;21.20;99.90
52016;DHT22;38032;53.326;6.472;2023-05-07T15:24:08;21.20;99.90
52016;DHT22;38032;53.326;6.472;2023-05-07T15:26:34;21.20;99.90
52016;DHT22;38032;53.326;6.472;2023-05-07T15:29:00;21.20;99.90
52016;DHT22;38032;53.326;6.472;2023-05-07T15:31:28;21.20;99.90
52016;DHT22;38032;53.326;6.472;2023-05-07T15:33:54;21.20;99.90
52016;DHT22;38032;53.326;6.472;2023-05-07T15:36:21;21.20;99.90
52016;DHT22;38032;53.326;6.472;2023-05-07T15:38:47;21.20;99.90
52016;DHT22;38032;53.326;6.472;2023-05-07T15:41:13;21.30;99.90
52016;DHT22;38032;53.326;6.472;2023-05-07T15:43:45;21.30;99.90
52016;DHT22;38032;53.326;6.472;2023-05-07T15:46:12;21.20;99.90
52016;DHT22;38032;53.326;6.472;2023-05-07T15:48:38;21.30;99.90